createdAt,value
2022-08-22T16:52:30.609Z,1.62
2022-08-22T17:18:16.106Z,2.62
2022-08-22T17:21:06.360Z,2.20
2022-08-22T17:23:37.802Z,2.50
2022-08-22T17:26:05.448Z,2.30
2022-08-22T17:28:47.496Z,2.22
2022-08-22T17:31:43.299Z,2.20
2022-08-22T17:34:38.886Z,2.35
2022-08-22T17:37:18.000Z,2.12
2022-08-22T17:40:16.631Z,2.83
2022-08-22T17:42:56.301Z,2.10
2022-08-22T17:45:37.955Z,2.08
2022-08-22T17:48:26.891Z,2.28
2022-08-22T17:51:13.377Z,2.35
2022-08-22T17:54:07.190Z,2.33
2022-08-22T17:57:03.244Z,2.15
2022-08-22T17:59:53.609Z,2.45
2022-08-22T18:02:51.223Z,2.60
2022-08-22T18:05:26.064Z,2.17
2022-08-22T18:08:05.765Z,2.05
2022-08-22T18:10:46.503Z,2.37
2022-08-22T18:13:46.790Z,2.17
2022-08-22T18:16:17.528Z,2.55
2022-08-22T18:19:16.352Z,2.30
2022-08-22T18:21:55.097Z,2.10
2022-08-22T18:24:47.707Z,2.40
2022-08-22T18:27:34.138Z,2.33
2022-08-22T18:30:15.560Z,2.30
2022-08-22T18:32:48.251Z,2.58
2022-08-22T18:35:28.809Z,2.42
2022-08-22T18:38:19.272Z,2.58
2022-08-22T18:40:56.210Z,2.25
2022-08-22T18:43:49.527Z,2.45
2022-08-22T18:46:46.817Z,1.98
2022-08-22T18:49:23.288Z,2.17
2022-08-22T18:52:27.293Z,3.17
2022-08-22T18:55:41.424Z,2.60
2022-08-22T18:58:29.365Z,2.47
2022-08-22T19:01:09.297Z,2.53
2022-08-22T19:04:23.983Z,2.85
2022-08-22T19:07:16.123Z,2.30
2022-08-22T19:09:50.239Z,2.53
2022-08-22T19:12:37.302Z,2.78
2022-08-22T19:17:39.624Z,2.55
2022-08-22T19:20:49.438Z,2.50
2022-08-22T19:23:45.829Z,3.30
2022-08-22T19:26:37.508Z,3.05
2022-08-22T19:29:18.838Z,2.85
2022-08-22T19:31:57.688Z,2.90
2022-08-22T19:34:32.647Z,2.60
2022-08-22T19:37:33.039Z,2.60
2022-08-22T19:40:12.578Z,3.00
2022-08-22T19:42:42.629Z,2.50
2022-08-22T19:45:27.672Z,2.50
2022-08-22T19:48:13.664Z,2.45
2022-08-22T19:50:42.492Z,3.08
2022-08-22T19:53:29.436Z,3.35
2022-08-22T19:56:01.047Z,3.55
2022-08-22T19:58:42.649Z,3.55
2022-08-22T20:01:44.936Z,3.55
2022-08-22T20:04:42.216Z,3.25
2022-08-22T20:07:47.444Z,3.92
2022-08-22T20:10:22.739Z,3.92
2022-08-22T20:13:08.969Z,3.28
2022-08-22T20:16:05.998Z,3.53
2022-08-22T20:19:15.464Z,3.47
2022-08-22T20:21:47.059Z,3.92
2022-08-22T20:24:46.800Z,3.83
2022-08-22T20:27:20.090Z,4.00
2022-08-22T20:29:51.590Z,3.65
2022-08-22T20:32:21.292Z,3.70
2022-08-22T20:34:49.759Z,4.30
2022-08-22T20:37:35.895Z,3.37
2022-08-22T20:40:55.542Z,4.07
2022-08-22T20:43:51.392Z,3.50
2022-08-22T20:46:46.125Z,3.62
2022-08-22T20:49:27.003Z,4.05
2022-08-22T20:51:58.233Z,4.00
2022-08-22T20:54:28.685Z,3.92
2022-08-22T20:57:01.354Z,3.85
2022-08-22T20:59:39.174Z,3.92
2022-08-22T21:02:50.726Z,3.65
2022-08-22T21:05:25.199Z,3.67
2022-08-22T21:08:26.509Z,3.30
2022-08-22T21:11:21.913Z,3.95
2022-08-22T21:13:51.105Z,3.15
2022-08-22T21:16:21.783Z,3.47
2022-08-22T21:18:51.822Z,3.65
2022-08-22T21:21:39.688Z,3.85
2022-08-22T21:24:09.088Z,3.92
2022-08-22T21:26:51.193Z,3.90
2022-08-22T21:29:19.455Z,4.22
2022-08-22T21:32:04.800Z,3.20
2022-08-22T21:34:44.293Z,3.72
2022-08-22T21:37:24.279Z,3.67
2022-08-22T21:39:54.579Z,3.95
2022-08-22T21:42:39.844Z,3.80
2022-08-22T21:45:35.695Z,3.55
2022-08-22T21:48:26.068Z,3.60
2022-08-22T21:50:55.296Z,3.20
2022-08-22T21:53:29.031Z,3.15
2022-08-22T21:56:14.752Z,3.40
2022-08-22T21:58:43.598Z,3.60
2022-08-22T22:01:31.030Z,3.12
2022-08-22T22:04:00.386Z,3.10
2022-08-22T22:06:29.427Z,3.30
2022-08-22T22:08:58.194Z,3.50
2022-08-22T22:11:26.409Z,3.10
2022-08-22T22:13:55.192Z,3.65
2022-08-22T22:16:26.168Z,3.08
2022-08-22T22:18:54.920Z,3.00
2022-08-22T22:21:23.364Z,3.08
2022-08-22T22:23:52.141Z,3.37
2022-08-22T22:26:22.133Z,3.00
2022-08-22T22:28:51.445Z,3.10
2022-08-22T22:31:19.665Z,2.75
2022-08-22T22:33:48.106Z,3.37
2022-08-22T22:36:20.238Z,3.15
2022-08-22T22:38:48.481Z,2.80
2022-08-22T22:41:20.415Z,3.45
2022-08-22T22:43:48.753Z,3.05
2022-08-22T22:46:17.047Z,3.47
2022-08-22T22:48:45.438Z,3.20
2022-08-22T22:51:14.923Z,3.28
2022-08-22T22:53:43.902Z,3.40
2022-08-22T22:56:16.505Z,3.28
2022-08-22T22:58:45.214Z,3.30
2022-08-22T23:01:21.214Z,3.40
2022-08-22T23:03:49.825Z,3.22
2022-08-22T23:06:20.221Z,3.35
2022-08-22T23:08:49.588Z,3.20
2022-08-22T23:11:23.614Z,3.10
2022-08-22T23:13:52.187Z,2.95
2022-08-22T23:16:23.516Z,3.17
2022-08-22T23:18:51.911Z,3.15
2022-08-22T23:21:22.514Z,3.20
2022-08-22T23:23:50.865Z,2.80
2022-08-22T23:26:19.755Z,3.00
2022-08-22T23:28:48.557Z,3.20
2022-08-22T23:31:19.610Z,2.65
2022-08-22T23:33:47.981Z,3.45
2022-08-22T23:36:19.930Z,3.40
2022-08-22T23:38:49.169Z,3.20
2022-08-22T23:41:18.886Z,3.35
2022-08-22T23:43:49.736Z,3.37
2022-08-22T23:46:18.813Z,3.00
2022-08-22T23:48:47.951Z,3.60
2022-08-22T23:51:17.527Z,2.80
2022-08-22T23:53:51.503Z,3.12
2022-08-22T23:56:27.858Z,3.40
2022-08-22T23:58:56.151Z,3.30
